Heroic Leader — C6ZD2 — position and weather

sailwx.info

Track history (hours):
 
Tides and Currents Weather Stations Pressure Air Temp Water Temp Dewpoint Dewpoint Depression Visibility Wind Speed Wind Dir Waves Ship Positions

Heroic Leader

Last reported at 2016-May-06 05:33 UTC. Time now 2016-May-06 07:27 UTC.
Position N 50°24' E 000°32'.

Length 200 m; draft 9.3 m.

Type: Cargo ship. MMSI: 311052700.

Date/timePositionNaut miles runAvg speedWind from/ knotsBaromVisibWave heightAir tempDewpointWater temp
2016-May-06 05:33N 50°24' E 000°32'1414.4
2016-May-06 04:34N 50°19' E 000°10'1413.8
2016-May-06 03:33N 50°14' W 000°10'1313.1
2016-May-06 02:33N 50°08' W 000°28'1212.5
2016-May-06 01:33N 50°03' W 000°46'1212.0
2016-May-06 00:32N 49°58' W 001°03'1211.8
2016-May-05 23:32N 49°53' W 001°20'1312.2
2016-May-05 22:29N 49°46' W 001°37'7 7.2
2016-May-05 21:33N 49°45' W 001°47'11 9.4
2016-May-05 20:26N 49°49' W 002°02'1010.4
2016-May-05 19:29N 49°52' W 002°17'1314.0
2016-May-05 18:34N 49°50' W 002°37'1716.9
2016-May-05 17:34N 49°44' W 003°01'1616.5
2016-May-05 16:34N 49°36' W 003°23'1716.6
2016-May-05 15:33N 49°28' W 003°46'1616.4
2016-May-05 14:34N 49°20' W 004°08'1716.0
2016-May-05 13:28N 49°11' W 004°31'1415.6
2016-May-05 12:33N 49°03' W 004°49'1515.1
2016-May-05 11:33N 48°56' W 005°09'1414.2
2016-May-05 10:33N 48°50' W 005°28'1313.2
2016-May-05 09:33N 48°40' W 005°42'1313.4
2016-May-05 08:33N 48°28' W 005°51'59814.2
2016-May-03 14:33N 39°15' W 011°06'1914.2
2016-May-03 13:13N 38°57' W 011°13'1214.2
2016-May-03 12:22N 38°45' W 011°17'1214.2
2016-May-03 11:33N 38°34' W 011°21'1414.1
2016-May-03 10:33N 38°21' W 011°26'1414.1
2016-May-03 09:33N 38°07' W 011°31'1414.1
2016-May-03 08:33N 37°53' W 011°36'1514.3
2016-May-03 07:31N 37°39' W 011°41'1414.1
2016-May-03 06:33N 37°26' W 011°46'14213.9
2016-May-02 20:20N 35°10' W 012°34'1114.0
2016-May-02 19:32N 34°59' W 012°38'40213.9
2016-May-01 14:34N 28°32' W 014°46'1413.7
2016-May-01 13:33N 28°19' W 014°50'1414.1
2016-May-01 12:33N 28°06' W 014°55'1414.4
2016-May-01 11:33N 27°52' W 015°01'1514.6
2016-May-01 10:33N 27°39' W 015°07'58517.2
2016-Apr-30 00:32N 18°17' W 018°04'104 6.0
2016-Apr-29 07:14N 16°33' W 018°02'5914.9
2016-Apr-29 03:15N 15°33' W 018°02'1114.9
2016-Apr-29 02:32N 15°23' W 018°02'7514.6
2016-Apr-28 21:23N 14°08' W 018°02'2914.1
2016-Apr-28 19:18N 13°38' W 018°02'1413.9
2016-Apr-28 18:19N 13°25' W 018°02'1114.0
2016-Apr-28 17:33N 13°14' W 018°01'1914.0
2016-Apr-28 16:12N 12°55' W 017°59'914.0
2016-Apr-28 15:33N 12°46' W 017°58'9214.7
2016-Apr-28 09:19N 11°15' W 017°48'5313.9
2016-Apr-28 05:31N 10°29' W 017°21'  
Track history (hours):
 
Tides and Currents Weather Stations Pressure Air Temp Water Temp Dewpoint Dewpoint Depression Visibility Wind Speed Wind Dir Waves Ship Positions

Heroic Leader

Last reported at 2016-May-06 05:33 UTC. Time now 2016-May-06 07:27 UTC.
Position N 50°24' E 000°32'.

Length 200 m; draft 9.3 m.

Type: Cargo ship. MMSI: 311052700.

Date/timePositionNaut miles runAvg speedWind from/ knotsBaromVisibWave heightAir tempDewpointWater temp
2016-May-06 05:33N 50°24' E 000°32'1414.4
2016-May-06 04:34N 50°19' E 000°10'1413.8
2016-May-06 03:33N 50°14' W 000°10'1313.1
2016-May-06 02:33N 50°08' W 000°28'1212.5
2016-May-06 01:33N 50°03' W 000°46'1212.0
2016-May-06 00:32N 49°58' W 001°03'1211.8
2016-May-05 23:32N 49°53' W 001°20'1312.2
2016-May-05 22:29N 49°46' W 001°37'7 7.2
2016-May-05 21:33N 49°45' W 001°47'11 9.4
2016-May-05 20:26N 49°49' W 002°02'1010.4
2016-May-05 19:29N 49°52' W 002°17'1314.0
2016-May-05 18:34N 49°50' W 002°37'1716.9
2016-May-05 17:34N 49°44' W 003°01'1616.5
2016-May-05 16:34N 49°36' W 003°23'1716.6
2016-May-05 15:33N 49°28' W 003°46'1616.4
2016-May-05 14:34N 49°20' W 004°08'1716.0
2016-May-05 13:28N 49°11' W 004°31'1415.6
2016-May-05 12:33N 49°03' W 004°49'1515.1
2016-May-05 11:33N 48°56' W 005°09'1414.2
2016-May-05 10:33N 48°50' W 005°28'1313.2
2016-May-05 09:33N 48°40' W 005°42'1313.4
2016-May-05 08:33N 48°28' W 005°51'59814.2
2016-May-03 14:33N 39°15' W 011°06'1914.2
2016-May-03 13:13N 38°57' W 011°13'1214.2
2016-May-03 12:22N 38°45' W 011°17'1214.2
2016-May-03 11:33N 38°34' W 011°21'1414.1
2016-May-03 10:33N 38°21' W 011°26'1414.1
2016-May-03 09:33N 38°07' W 011°31'1414.1
2016-May-03 08:33N 37°53' W 011°36'1514.3
2016-May-03 07:31N 37°39' W 011°41'1414.1
2016-May-03 06:33N 37°26' W 011°46'14213.9
2016-May-02 20:20N 35°10' W 012°34'1114.0
2016-May-02 19:32N 34°59' W 012°38'40213.9
2016-May-01 14:34N 28°32' W 014°46'1413.7
2016-May-01 13:33N 28°19' W 014°50'1414.1
2016-May-01 12:33N 28°06' W 014°55'1414.4
2016-May-01 11:33N 27°52' W 015°01'1514.6
2016-May-01 10:33N 27°39' W 015°07'58517.2
2016-Apr-30 00:32N 18°17' W 018°04'104 6.0
2016-Apr-29 07:14N 16°33' W 018°02'5914.9
2016-Apr-29 03:15N 15°33' W 018°02'1114.9
2016-Apr-29 02:32N 15°23' W 018°02'7514.6
2016-Apr-28 21:23N 14°08' W 018°02'2914.1
2016-Apr-28 19:18N 13°38' W 018°02'1413.9
2016-Apr-28 18:19N 13°25' W 018°02'1114.0
2016-Apr-28 17:33N 13°14' W 018°01'1914.0
2016-Apr-28 16:12N 12°55' W 017°59'914.0
2016-Apr-28 15:33N 12°46' W 017°58'9214.7
2016-Apr-28 09:19N 11°15' W 017°48'5313.9
2016-Apr-28 05:31N 10°29' W 017°21'  

Dump ship's entire track history